Tuesday, November 21, 2017, 3:51 PM GMT
Back to Local

CYGK, Kingston, Ont.

Location: , , Canada Lat: 44.217
Local Time: 3:51 PM GMT (15:51 GMT) Lon: -76.6
Time Zone: GMT Elev: 305 ft

Show me the last for .
Show Decoded

2017-11-21 15:00 METAR CYGK 211500Z 20022G27KT 15SM SCT220 BKN250 08/01 A2974 RMK CI3CI3 SLP076 =
2017-11-21 14:00 METAR CYGK 211400Z 19020G27KT 15SM FEW200 BKN250 08/01 A2975 RMK CI2CI4 SLP079 =
2017-11-21 13:00 METAR CYGK 211300Z 19022G29KT 15SM FEW200 BKN250 08/01 A2976 RMK CI2CI3 SLP083 =
2017-11-21 12:00 METAR CYGK 211200Z 19019G28KT 15SM FEW200 SCT250 07/01 A2978 RMK CI2CI2 SLP088 =
2017-11-21 11:00 METAR CYGK 211100Z 19020G28KT 15SM SCT250 07/02 A2979 RMK CI3 SLP092 =
2017-11-21 04:00 METAR CYGK 210400Z VRB02KT 15SM FEW040 FEW150 01/M02 A2987 RMK SC1AC1 SC TR AC
                 TR LAST STFD OBS/NEXT 211100 UTC SLP122 =
2017-11-21 03:00 METAR CYGK 210300Z 09003KT 15SM SCT040 BKN130 M00/M03 A2990 RMK SC4AC2 SLP131 =
2017-11-21 02:00 METAR CYGK 210200Z 09007KT 15SM SCT018 BKN042 OVC110 M00/M02 A2992 RMK SC3SC4AC1
                 SLP138 =
2017-11-21 01:00 METAR CYGK 210100Z 10004KT 15SM OVC022 M00/M03 A2994 RMK SC8 SLP146 =
2017-11-21 00:00 METAR CYGK 210000Z 06004KT 15SM OVC030 M01/M04 A2995 RMK SC8 SLP148 =
2017-11-20 23:00 METAR CYGK 202300Z 09004KT 15SM FEW022 OVC035 M01/M04 A2996 RMK CF1SC7 SLP150 =
2017-11-20 22:00 METAR CYGK 202200Z 09004KT 15SM FEW020 OVC039 M01/M04 A2994 RMK CF1SC8 CF TR
                 SLP146 =
2017-11-20 21:00 METAR CYGK 202100Z 36006KT 15SM FEW018 OVC037 M01/M04 A2993 RMK CF1SC8 CF TR
                 SLP140 =
2017-11-20 20:38 METAR CYGK 202038Z 01004KT 15SM FEW018 OVC035 M01/M04 A2992 RMK CF1SC7 SLP139 =
2017-11-20 20:00 METAR CYGK 202000Z 01007KT 15SM -SHSN FEW018 BKN030 OVC100 M01/M04 A2990 RMK
                 CF1SC6AC1 CVCTV CLD EMBD SLP133 =
2017-11-20 19:00 METAR CYGK 201900Z 36008KT 6SM -SHSN OVC028TCU M02/M04 A2990 RMK TCU8 VIS LWR N
                 SLP132 =
2017-11-20 18:31 METAR CYGK 201831Z 35007KT 3SM -SHSN OVC019TCU M01/M03 A2990 RMK TCU8 SLP132 =
2017-11-20 18:22 METAR CYGK 201822Z 35008KT 2 1/2SM -SHSN OVC019TCU M01/M03 A2990 RMK TCU8 SLP132
                 =
2017-11-20 18:00 METAR CYGK 201800Z 36007KT 4SM -SHGS OVC022TCU M01/M03 A2990 RMK TCU8 SLP131 =
2017-11-20 17:44 METAR CYGK 201744Z 34008KT 5SM -SHGS OVC025TCU M00/M03 A2990 RMK TCU8 VIS NW - N
                 1 1/2 SLP131 =
2017-11-20 17:20 METAR CYGK 201720Z 33007KT 10SM -SHGS BKN030TCU OVC050 01/M03 A2989 RMK TCU7SC1
                 SLP126 =
2017-11-20 17:00 METAR CYGK 201700Z 28008KT 15SM BKN030 BKN050 02/M04 A2989 RMK SC6SC1 CVCTV CLD
                 EMBD SH ALQDS SLP126 =
2017-11-20 16:00 METAR CYGK 201600Z 26008G15KT 15SM FEW030 BKN045 BKN075 00/M04 A2989 WS ALL RWY
                 RMK CU1SC5AC2 CU TR SLP126 =

Support USWX by starting your Amazon purchase here.